createdAt,value
2022-11-17T00:02:18.624Z,8.90
2022-11-17T00:04:46.565Z,8.90
2022-11-17T00:07:14.407Z,9.00
2022-11-17T00:09:42.638Z,9.00
2022-11-17T00:12:32.595Z,8.90
2022-11-17T00:15:01.059Z,8.90
2022-11-17T00:17:30.197Z,8.80
2022-11-17T00:20:15.464Z,8.70
2022-11-17T00:22:43.304Z,8.80
2022-11-17T00:25:11.122Z,8.80
2022-11-17T00:27:38.932Z,8.90
2022-11-17T00:30:08.254Z,9.20
2022-11-17T00:32:55.049Z,9.40
2022-11-17T00:35:22.889Z,9.30
2022-11-17T00:38:04.631Z,9.30
2022-11-17T00:40:32.571Z,9.30
2022-11-17T00:43:00.416Z,9.10
2022-11-17T00:45:28.330Z,9.10
2022-11-17T00:47:57.440Z,9.10
2022-11-17T00:50:25.213Z,9.00
2022-11-17T00:52:53.060Z,9.10
2022-11-17T00:55:20.869Z,9.10
2022-11-17T00:57:48.743Z,9.10
2022-11-17T01:00:16.774Z,9.10
2022-11-17T01:02:44.588Z,9.10
2022-11-17T01:05:13.701Z,9.20
2022-11-17T01:07:41.523Z,9.30
2022-11-17T01:10:10.329Z,9.30
2022-11-17T01:12:38.104Z,9.30
2022-11-17T01:15:06.395Z,9.30
2022-11-17T01:17:34.300Z,9.30
2022-11-17T01:20:02.104Z,9.30
2022-11-17T01:22:31.210Z,9.50
2022-11-17T01:24:59.002Z,9.40
2022-11-17T01:27:26.814Z,9.40
2022-11-17T01:29:54.600Z,9.30
2022-11-17T01:32:22.421Z,9.20
2022-11-17T01:34:50.209Z,9.20
2022-11-17T01:37:20.692Z,9.20
2022-11-17T01:39:50.988Z,9.10
2022-11-17T01:42:20.925Z,9.20
2022-11-17T01:45:03.544Z,9.20
2022-11-17T01:47:37.185Z,9.30
2022-11-17T01:50:09.680Z,9.40
2022-11-17T01:52:40.868Z,9.60
2022-11-17T01:55:12.043Z,9.50
2022-11-17T01:57:44.341Z,9.40
2022-11-17T02:00:13.389Z,9.40
2022-11-17T02:02:43.046Z,9.40
2022-11-17T02:05:25.405Z,9.30
2022-11-17T02:07:56.155Z,9.20
2022-11-17T02:10:25.315Z,9.20
2022-11-17T02:12:54.457Z,9.20
2022-11-17T02:15:22.729Z,9.20
2022-11-17T02:17:51.656Z,9.10
2022-11-17T02:20:29.834Z,9.10
2022-11-17T02:23:30.386Z,9.20
2022-11-17T02:26:18.992Z,9.10
2022-11-17T02:28:54.938Z,9.00
2022-11-17T02:31:30.253Z,9.10
2022-11-17T02:34:07.111Z,9.20
2022-11-17T02:36:40.090Z,9.30
2022-11-17T02:39:14.783Z,9.30
2022-11-17T02:41:51.973Z,9.30
2022-11-17T02:44:27.365Z,9.30
2022-11-17T02:47:00.665Z,9.40
2022-11-17T02:49:32.323Z,9.50
2022-11-17T02:52:01.419Z,9.70
2022-11-17T02:54:31.589Z,9.70
2022-11-17T02:56:59.728Z,9.50
2022-11-17T02:59:31.817Z,9.40
2022-11-17T03:02:25.873Z,9.30
2022-11-17T03:05:05.494Z,9.10
2022-11-17T03:07:49.622Z,8.90
2022-11-17T03:10:22.199Z,8.80
2022-11-17T03:12:55.920Z,8.80
2022-11-17T03:15:30.394Z,8.70
2022-11-17T03:18:05.374Z,8.70
2022-11-17T03:20:41.168Z,8.80
2022-11-17T03:23:14.375Z,8.70
2022-11-17T03:25:48.812Z,8.70
2022-11-17T03:28:18.058Z,8.60
2022-11-17T03:30:48.919Z,8.50
2022-11-17T03:33:19.244Z,8.40
2022-11-17T03:35:51.124Z,8.40
2022-11-17T03:38:20.938Z,8.30
2022-11-17T03:40:51.461Z,8.30
2022-11-17T03:43:21.313Z,8.30
2022-11-17T03:45:53.181Z,8.30
2022-11-17T03:48:25.568Z,8.30
2022-11-17T03:50:59.153Z,8.40
2022-11-17T03:53:27.019Z,8.40
2022-11-17T03:56:01.029Z,8.40
2022-11-17T03:58:32.104Z,8.40
2022-11-17T04:01:04.032Z,8.50
2022-11-17T04:03:34.170Z,8.50
2022-11-17T04:06:02.803Z,8.60
2022-11-17T04:08:31.747Z,8.60
2022-11-17T04:11:17.368Z,8.70
2022-11-17T04:14:03.042Z,8.80
2022-11-17T04:16:32.442Z,8.80
2022-11-17T04:19:00.249Z,8.80
2022-11-17T04:21:28.077Z,8.80
2022-11-17T04:23:57.748Z,8.90
2022-11-17T04:26:43.207Z,8.90
2022-11-17T04:29:11.029Z,8.90
2022-11-17T04:31:40.187Z,9.00
2022-11-17T04:34:08.061Z,8.90
2022-11-17T04:36:40.059Z,8.90
2022-11-17T04:39:07.991Z,8.90
2022-11-17T04:41:54.231Z,8.80
2022-11-17T04:44:23.672Z,8.70
2022-11-17T04:46:53.654Z,8.70
2022-11-17T04:49:22.838Z,8.80
2022-11-17T04:51:51.442Z,8.80
2022-11-17T04:54:21.630Z,8.80
2022-11-17T04:56:49.484Z,8.70
2022-11-17T04:59:17.459Z,8.70
2022-11-17T05:01:46.237Z,8.70
2022-11-17T05:04:38.187Z,8.80
2022-11-17T05:07:06.892Z,8.80
2022-11-17T05:09:34.860Z,8.80
2022-11-17T05:12:20.045Z,8.80
2022-11-17T05:14:50.150Z,8.70
2022-11-17T05:17:17.473Z,8.70
2022-11-17T05:19:48.173Z,8.70
2022-11-17T05:22:35.559Z,8.60
2022-11-17T05:25:03.394Z,8.50
2022-11-17T05:27:31.565Z,8.50
2022-11-17T05:29:59.372Z,8.50
2022-11-17T05:32:27.179Z,8.50
2022-11-17T05:34:56.290Z,8.50
2022-11-17T05:37:24.069Z,8.60
2022-11-17T05:39:51.848Z,8.60
2022-11-17T05:42:19.683Z,8.80
2022-11-17T05:44:48.364Z,8.90
2022-11-17T05:47:16.577Z,8.90
2022-11-17T05:49:44.501Z,8.90
2022-11-17T05:52:13.643Z,8.90
2022-11-17T05:54:41.413Z,8.90
2022-11-17T05:57:13.253Z,8.90
2022-11-17T05:59:44.974Z,9.00
2022-11-17T06:02:17.386Z,8.90
2022-11-17T06:04:46.268Z,8.90
2022-11-17T06:07:16.029Z,8.90
2022-11-17T06:09:43.819Z,8.90
2022-11-17T06:12:12.755Z,8.90
2022-11-17T06:14:40.645Z,8.90
2022-11-17T06:17:18.876Z,9.00
2022-11-17T06:19:53.712Z,9.10
2022-11-17T06:22:22.981Z,9.10
2022-11-17T06:24:50.861Z,9.10
2022-11-17T06:27:18.869Z,9.00
2022-11-17T06:29:47.182Z,9.10
2022-11-17T06:32:16.635Z,9.10
2022-11-17T06:34:49.103Z,9.20
2022-11-17T06:37:18.430Z,9.10
2022-11-17T06:39:47.507Z,9.10
2022-11-17T06:42:15.323Z,9.20
2022-11-17T06:44:43.103Z,9.30
2022-11-17T06:47:10.897Z,9.30
2022-11-17T06:49:38.738Z,9.20
2022-11-17T06:52:06.534Z,9.30
2022-11-17T06:54:34.313Z,9.30
2022-11-17T06:57:03.440Z,9.40
2022-11-17T06:59:31.226Z,9.50
2022-11-17T07:01:58.994Z,9.50
2022-11-17T07:04:26.737Z,9.60
2022-11-17T07:06:54.576Z,9.60
2022-11-17T07:09:22.415Z,9.70
2022-11-17T07:11:50.178Z,9.70
2022-11-17T07:14:19.686Z,9.60
2022-11-17T07:16:47.547Z,9.60
2022-11-17T07:19:15.334Z,9.70
2022-11-17T07:21:43.128Z,9.80
2022-11-17T07:24:10.913Z,9.80
2022-11-17T07:26:38.687Z,9.80
2022-11-17T07:29:06.589Z,9.60
2022-11-17T07:31:37.538Z,9.40
2022-11-17T07:34:05.299Z,9.20
2022-11-17T07:36:34.111Z,9.00
2022-11-17T07:39:01.885Z,8.90
2022-11-17T07:41:29.661Z,8.80
2022-11-17T07:43:57.409Z,8.70
2022-11-17T07:46:25.204Z,8.60
2022-11-17T07:48:55.719Z,8.50
2022-11-17T07:51:23.604Z,8.50
2022-11-17T07:53:51.433Z,8.50
2022-11-17T07:56:19.291Z,8.50
2022-11-17T07:58:47.103Z,8.50
2022-11-17T08:01:16.133Z,8.50
2022-11-17T08:03:44.537Z,8.50
2022-11-17T08:06:13.935Z,8.50
2022-11-17T08:08:41.811Z,8.40
2022-11-17T08:11:11.447Z,8.40
2022-11-17T08:13:40.431Z,8.50
2022-11-17T08:16:09.325Z,8.50
2022-11-17T08:18:38.189Z,8.50
2022-11-17T08:21:07.973Z,8.50
2022-11-17T08:23:37.793Z,8.50
2022-11-17T08:26:06.721Z,8.50
2022-11-17T08:28:35.142Z,8.50
2022-11-17T08:31:04.145Z,8.50
2022-11-17T08:33:32.015Z,8.50
2022-11-17T08:36:00.022Z,8.40
2022-11-17T08:38:29.118Z,8.40
2022-11-17T08:40:58.710Z,8.40
2022-11-17T08:43:26.562Z,8.30
2022-11-17T08:45:54.578Z,8.30
2022-11-17T08:48:22.786Z,8.30
2022-11-17T08:50:50.929Z,8.30
2022-11-17T08:53:20.710Z,8.30
2022-11-17T08:55:48.733Z,8.30
2022-11-17T08:58:17.955Z,8.30
2022-11-17T09:00:47.204Z,8.30
2022-11-17T09:03:15.400Z,8.30
2022-11-17T09:05:45.040Z,8.20
2022-11-17T09:11:05.790Z,8.20
2022-11-17T09:13:35.699Z,8.20
2022-11-17T09:16:04.310Z,8.20
2022-11-17T09:18:32.335Z,8.10
2022-11-17T09:21:01.880Z,8.10
2022-11-17T09:23:31.558Z,8.20
2022-11-17T09:25:59.464Z,8.20
2022-11-17T09:28:27.452Z,8.20
2022-11-17T09:30:56.570Z,8.10
2022-11-17T09:33:24.392Z,8.10
2022-11-17T09:35:52.215Z,8.20
2022-11-17T09:38:19.994Z,8.30
2022-11-17T09:40:47.827Z,8.40
2022-11-17T09:43:26.348Z,8.40
2022-11-17T09:46:07.489Z,8.40
2022-11-17T09:48:44.065Z,8.40
2022-11-17T09:51:16.376Z,8.50
2022-11-17T09:53:49.570Z,8.40
2022-11-17T09:56:17.897Z,8.40
2022-11-17T09:58:49.710Z,8.50
2022-11-17T10:01:20.352Z,8.50
2022-11-17T10:03:49.504Z,8.40
2022-11-17T10:06:20.366Z,8.40
2022-11-17T10:08:54.298Z,8.40
2022-11-17T10:11:34.828Z,8.40
2022-11-17T10:14:14.121Z,8.40
2022-11-17T10:16:47.639Z,8.40
2022-11-17T10:19:17.939Z,8.50
2022-11-17T10:21:48.094Z,8.50
2022-11-17T10:24:34.537Z,8.60
2022-11-17T10:27:03.203Z,8.70
2022-11-17T10:29:31.254Z,8.90
2022-11-17T10:32:01.667Z,9.00
2022-11-17T10:34:40.526Z,9.00
2022-11-17T10:37:30.399Z,9.10
2022-11-17T10:40:23.613Z,9.20
2022-11-17T10:43:01.644Z,9.30
2022-11-17T10:45:29.666Z,9.40
2022-11-17T10:48:11.604Z,9.40
2022-11-17T10:50:51.335Z,9.40
2022-11-17T10:53:24.670Z,9.50
2022-11-17T10:55:58.911Z,9.60
2022-11-17T10:58:28.092Z,9.90
2022-11-17T11:00:57.799Z,10.00
2022-11-17T11:03:29.872Z,9.90
2022-11-17T11:06:00.687Z,9.90
2022-11-17T11:08:46.912Z,9.90
2022-11-17T11:11:21.867Z,10.20
2022-11-17T11:13:54.781Z,10.30
2022-11-17T11:16:22.549Z,10.60
2022-11-17T11:18:53.004Z,10.80
2022-11-17T11:21:35.762Z,11.10
2022-11-17T11:24:12.972Z,11.40
2022-11-17T11:26:52.004Z,11.40
2022-11-17T11:29:30.832Z,11.50
2022-11-17T11:32:12.657Z,11.40
2022-11-17T11:35:25.357Z,11.60
2022-11-17T11:38:02.450Z,11.70
2022-11-17T11:40:32.640Z,11.80
2022-11-17T11:43:05.545Z,11.50
2022-11-17T11:45:45.463Z,11.40
2022-11-17T11:48:24.975Z,11.30
2022-11-17T11:50:58.351Z,11.50
2022-11-17T11:53:32.754Z,11.50
2022-11-17T11:56:13.115Z,11.60
2022-11-17T11:58:46.565Z,11.70
2022-11-17T12:01:17.080Z,11.50
2022-11-17T12:03:50.111Z,11.50
2022-11-17T12:06:43.966Z,11.60
2022-11-17T12:09:38.977Z,11.60
2022-11-17T12:12:09.624Z,11.50
2022-11-17T12:14:38.878Z,11.40
2022-11-17T12:17:17.100Z,11.30
2022-11-17T12:19:52.574Z,11.50
2022-11-17T12:22:43.982Z,11.50
2022-11-17T12:25:20.086Z,11.30
2022-11-17T12:27:49.771Z,11.10
2022-11-17T12:30:51.416Z,11.20
2022-11-17T12:33:19.505Z,11.30
2022-11-17T12:35:47.357Z,11.30
2022-11-17T12:38:42.481Z,11.30
2022-11-17T12:41:10.241Z,11.30
2022-11-17T12:43:38.053Z,11.40
2022-11-17T12:46:24.908Z,11.40
2022-11-17T12:48:59.469Z,11.40
2022-11-17T12:51:36.847Z,11.20
2022-11-17T12:54:20.654Z,11.20
2022-11-17T12:57:03.967Z,11.30
2022-11-17T12:59:54.351Z,11.40
2022-11-17T13:02:32.328Z,11.50
2022-11-17T13:05:04.622Z,11.60
2022-11-17T13:07:32.473Z,11.80
2022-11-17T13:10:02.655Z,11.80
2022-11-17T13:12:32.520Z,12.00
2022-11-17T13:15:02.524Z,12.20
2022-11-17T13:17:33.258Z,12.30
2022-11-17T13:20:04.106Z,12.20
2022-11-17T13:22:33.627Z,12.20
2022-11-17T13:25:22.130Z,12.00
2022-11-17T13:27:56.055Z,11.80
2022-11-17T13:30:28.454Z,11.80
2022-11-17T13:32:57.352Z,11.70
2022-11-17T13:35:28.513Z,11.80
2022-11-17T13:38:04.110Z,11.90
2022-11-17T13:40:35.378Z,11.90
2022-11-17T13:43:03.924Z,11.90
2022-11-17T13:45:32.843Z,11.90
2022-11-17T13:48:00.677Z,12.00
2022-11-17T13:50:37.937Z,11.90
2022-11-17T13:53:21.728Z,11.80
2022-11-17T13:55:52.007Z,11.60
2022-11-17T13:58:31.554Z,11.50
2022-11-17T14:01:00.482Z,11.50
2022-11-17T14:03:35.520Z,11.50
2022-11-17T14:06:05.521Z,11.50
2022-11-17T14:08:35.073Z,11.50
2022-11-17T14:11:21.069Z,11.60
2022-11-17T14:13:51.156Z,11.60
2022-11-17T14:16:25.569Z,11.80
2022-11-17T14:19:02.177Z,11.80
2022-11-17T14:21:31.033Z,11.90
2022-11-17T14:24:07.857Z,11.90
2022-11-17T14:26:42.534Z,11.80
2022-11-17T14:29:12.288Z,11.60
2022-11-17T14:31:40.210Z,11.50
2022-11-17T14:34:07.999Z,11.40
2022-11-17T14:36:37.579Z,11.30
2022-11-17T14:39:11.747Z,11.20
2022-11-17T14:41:41.681Z,11.20
2022-11-17T14:44:10.557Z,11.00
2022-11-17T14:46:38.374Z,10.90
2022-11-17T14:49:06.730Z,10.90
2022-11-17T14:51:34.638Z,10.90
2022-11-17T14:54:02.968Z,10.90
2022-11-17T14:56:30.812Z,10.90
2022-11-17T14:59:00.639Z,10.90
2022-11-17T15:01:31.023Z,10.90
2022-11-17T15:04:15.366Z,10.90
2022-11-17T15:06:48.792Z,10.90
2022-11-17T15:09:16.806Z,10.70
2022-11-17T15:11:45.139Z,10.80
2022-11-17T15:14:14.655Z,10.70
2022-11-17T15:16:43.183Z,10.60
2022-11-17T15:19:12.106Z,10.60
2022-11-17T15:21:39.905Z,10.60
2022-11-17T15:24:09.101Z,10.50
2022-11-17T15:26:37.020Z,10.50
2022-11-17T15:29:04.802Z,10.50
2022-11-17T15:31:34.000Z,10.50
2022-11-17T15:34:02.472Z,10.40
2022-11-17T15:36:31.778Z,10.20
2022-11-17T15:38:59.626Z,10.30
2022-11-17T15:41:32.632Z,10.30
2022-11-17T15:44:00.887Z,10.20
2022-11-17T15:46:28.688Z,10.20
2022-11-17T15:48:58.024Z,10.20
2022-11-17T15:51:27.603Z,10.20
2022-11-17T15:53:58.581Z,10.10
2022-11-17T15:56:28.196Z,10.10
2022-11-17T15:58:57.300Z,10.00
2022-11-17T16:01:30.431Z,9.90
2022-11-17T16:04:01.280Z,10.00
2022-11-17T16:06:29.925Z,9.90
2022-11-17T16:08:58.248Z,10.00
2022-11-17T16:11:27.041Z,9.90
2022-11-17T16:13:55.246Z,9.80
2022-11-17T16:16:24.419Z,9.80
2022-11-17T16:18:52.325Z,9.70
2022-11-17T16:21:21.575Z,9.60
2022-11-17T16:23:51.044Z,9.50
2022-11-17T16:26:20.234Z,9.60
2022-11-17T16:28:48.619Z,9.60
2022-11-17T16:31:18.815Z,9.60
2022-11-17T16:33:50.450Z,9.50
2022-11-17T16:36:18.657Z,9.40
2022-11-17T16:39:00.878Z,9.20
2022-11-17T16:41:31.926Z,9.20
2022-11-17T16:44:00.349Z,9.20
2022-11-17T16:46:30.838Z,9.20
2022-11-17T16:49:02.632Z,9.20
2022-11-17T16:51:30.612Z,9.30
2022-11-17T16:54:01.513Z,9.40
2022-11-17T16:56:29.681Z,9.50
2022-11-17T16:58:58.590Z,9.60
2022-11-17T17:01:28.463Z,9.60
2022-11-17T17:03:57.116Z,9.60
2022-11-17T17:06:25.117Z,9.60
2022-11-17T17:08:56.644Z,9.60
2022-11-17T17:11:27.131Z,9.70
2022-11-17T17:13:56.233Z,9.70
2022-11-17T17:16:24.865Z,9.70
2022-11-17T17:18:56.181Z,9.70
2022-11-17T17:21:24.234Z,9.80
2022-11-17T17:23:52.110Z,9.80
2022-11-17T17:26:22.345Z,9.80
2022-11-17T17:28:53.008Z,9.80
2022-11-17T17:31:22.585Z,9.90
2022-11-17T17:33:51.302Z,9.90
2022-11-17T17:36:20.977Z,9.90
2022-11-17T17:38:54.935Z,9.80
2022-11-17T17:41:25.087Z,9.90
2022-11-17T17:43:58.446Z,9.90
2022-11-17T17:46:27.192Z,10.00
2022-11-17T17:48:55.374Z,10.00
2022-11-17T17:51:24.956Z,10.00
2022-11-17T17:53:53.181Z,10.00
2022-11-17T17:56:22.163Z,9.90
2022-11-17T17:58:50.784Z,9.90
2022-11-17T18:01:21.974Z,10.00
2022-11-17T18:03:51.758Z,10.00
2022-11-17T18:06:21.967Z,10.10
2022-11-17T18:08:50.235Z,10.20
2022-11-17T18:11:20.514Z,10.20
2022-11-17T18:13:50.464Z,10.10
2022-11-17T18:16:22.496Z,10.00
2022-11-17T18:18:50.713Z,9.90
2022-11-17T18:21:20.268Z,9.80
2022-11-17T18:23:48.054Z,9.70
2022-11-17T18:26:17.805Z,9.60
2022-11-17T18:28:51.362Z,9.50
2022-11-17T18:31:21.220Z,9.30
2022-11-17T18:33:52.159Z,9.30
2022-11-17T18:36:21.073Z,9.10
2022-11-17T18:38:50.913Z,9.00
2022-11-17T18:41:19.471Z,8.90
2022-11-17T18:43:47.663Z,8.90
2022-11-17T18:46:18.074Z,8.90
2022-11-17T18:48:49.082Z,8.70
2022-11-17T18:51:19.829Z,8.70
2022-11-17T18:53:49.360Z,8.60
2022-11-17T18:56:19.019Z,8.70
2022-11-17T18:58:47.257Z,8.60
2022-11-17T19:01:17.029Z,8.70
2022-11-17T19:03:47.719Z,8.80
2022-11-17T19:06:16.647Z,8.70
2022-11-17T19:08:45.137Z,8.70
2022-11-17T19:11:13.760Z,8.60
2022-11-17T19:13:42.868Z,8.50
2022-11-17T19:16:12.765Z,8.40
2022-11-17T19:18:40.921Z,8.30
2022-11-17T19:21:11.861Z,8.20
2022-11-17T19:23:41.918Z,8.20
2022-11-17T19:26:12.466Z,8.00
2022-11-17T19:28:40.868Z,8.00
2022-11-17T19:31:10.769Z,7.90
2022-11-17T19:33:40.062Z,7.90
2022-11-17T19:36:11.691Z,7.90
2022-11-17T19:38:40.679Z,7.90
2022-11-17T19:41:10.625Z,7.80
2022-11-17T19:43:44.536Z,7.80
2022-11-17T19:46:15.260Z,7.80
2022-11-17T19:48:44.251Z,7.70
2022-11-17T19:51:15.951Z,7.70
2022-11-17T19:53:43.750Z,7.70
2022-11-17T19:56:11.603Z,7.70
2022-11-17T19:58:40.994Z,7.70
2022-11-17T20:01:11.130Z,7.70
2022-11-17T20:03:39.599Z,7.70
2022-11-17T20:06:08.109Z,7.60
2022-11-17T20:08:37.493Z,7.60
2022-11-17T20:11:07.370Z,7.70
2022-11-17T20:13:36.079Z,7.70
2022-11-17T20:16:11.475Z,7.70
2022-11-17T20:18:40.076Z,7.80
2022-11-17T20:21:09.023Z,7.80
2022-11-17T20:23:39.246Z,7.80
2022-11-17T20:26:08.928Z,7.70
2022-11-17T20:28:37.874Z,7.70
2022-11-17T20:31:10.212Z,7.80
2022-11-17T20:33:38.760Z,7.80
2022-11-17T20:36:07.717Z,7.80
2022-11-17T20:38:35.827Z,7.80
2022-11-17T20:41:06.436Z,7.90
2022-11-17T20:43:35.033Z,7.90
2022-11-17T20:46:03.627Z,7.90
2022-11-17T20:48:33.912Z,7.70
2022-11-17T20:51:03.449Z,7.50
2022-11-17T20:53:32.434Z,7.10
2022-11-17T20:56:02.281Z,6.90
2022-11-17T20:58:32.047Z,6.80
2022-11-17T21:01:00.414Z,6.60
2022-11-17T21:03:28.529Z,6.60
2022-11-17T21:05:59.115Z,6.60
2022-11-17T21:08:28.928Z,6.60
2022-11-17T21:10:57.181Z,6.50
2022-11-17T21:13:25.939Z,6.50
2022-11-17T21:16:11.811Z,6.50
2022-11-17T21:18:45.376Z,6.50
2022-11-17T21:21:13.728Z,6.50
2022-11-17T21:23:42.745Z,6.50
2022-11-17T21:26:11.988Z,6.40
2022-11-17T21:28:41.012Z,6.40
2022-11-17T21:31:12.857Z,6.40
2022-11-17T21:33:41.266Z,6.40
2022-11-17T21:36:11.176Z,6.40
2022-11-17T21:38:39.344Z,6.30
2022-11-17T21:41:09.579Z,6.40
2022-11-17T21:43:38.574Z,6.30
2022-11-17T21:46:08.121Z,6.20
2022-11-17T21:48:38.111Z,6.20
2022-11-17T21:51:07.165Z,6.20
2022-11-17T21:53:34.948Z,6.30
2022-11-17T21:56:02.776Z,6.30
2022-11-17T21:58:30.560Z,6.30
2022-11-17T22:00:58.685Z,6.20
2022-11-17T22:03:27.503Z,6.20
2022-11-17T22:06:06.900Z,6.20
2022-11-17T22:08:36.786Z,6.10
2022-11-17T22:11:05.966Z,6.10
2022-11-17T22:13:33.800Z,6.10
2022-11-17T22:16:06.849Z,6.10
2022-11-17T22:18:34.674Z,6.10
2022-11-17T22:21:03.926Z,6.10
2022-11-17T22:23:32.045Z,6.10
2022-11-17T22:26:01.300Z,6.10
2022-11-17T22:28:29.395Z,6.10
2022-11-17T22:30:57.541Z,6.10
2022-11-17T22:33:25.410Z,6.10
2022-11-17T22:35:53.232Z,6.10
2022-11-17T22:38:22.341Z,6.10
2022-11-17T22:40:50.108Z,6.10
2022-11-17T22:43:17.875Z,6.10
2022-11-17T22:45:45.633Z,6.10
2022-11-17T22:48:13.378Z,6.10
2022-11-17T22:50:41.100Z,6.10
2022-11-17T22:53:08.899Z,6.10
2022-11-17T22:55:38.047Z,6.10
2022-11-17T22:58:05.843Z,6.10
2022-11-17T23:00:33.617Z,6.10
2022-11-17T23:03:01.413Z,6.00
2022-11-17T23:05:29.280Z,6.00
2022-11-17T23:07:57.047Z,6.10
2022-11-17T23:10:24.925Z,6.10
2022-11-17T23:12:54.092Z,6.10
2022-11-17T23:15:22.116Z,6.10
2022-11-17T23:17:49.878Z,6.10
2022-11-17T23:20:18.006Z,6.10
2022-11-17T23:22:45.873Z,6.10
2022-11-17T23:25:13.667Z,6.10
2022-11-17T23:27:41.547Z,6.10
2022-11-17T23:30:11.967Z,6.10
2022-11-17T23:32:39.720Z,6.20
2022-11-17T23:35:08.429Z,6.20
2022-11-17T23:37:36.241Z,6.20
2022-11-17T23:40:04.239Z,6.20
2022-11-17T23:42:32.794Z,6.20
2022-11-17T23:45:00.820Z,6.20
2022-11-17T23:47:30.085Z,6.20
2022-11-17T23:49:57.842Z,6.20
2022-11-17T23:52:25.656Z,6.30
2022-11-17T23:54:53.436Z,6.30
2022-11-17T23:57:21.221Z,6.30
2022-11-17T23:59:49.093Z,6.30
